Time;durP1;ratioP1;P1;durP2;ratioP2;P2;SDS_P1;SDS_P2;PMS_P1;PMS_P2;Temp;Humidity;BMP_temperature;BMP_pressure;BME280_temperature;BME280_humidity;BME280_pressure;Samples;Min_cycle;Max_cycle;Signal;HPM_P1;HPM_P2
2022/10/25 00:02:13;;;;;;;0.40;0.20;;;;;;;17.93;100.00;98905.22;7399369;19;20006;-56
2022/10/25 00:04:39;;;;;;;0.30;0.10;;;;;;;17.70;100.00;98915.50;7398551;19;20014;-56
2022/10/25 00:07:05;;;;;;;0.10;0.10;;;;;;;17.76;100.00;98910.50;7398583;19;20384;-56
2022/10/25 00:09:31;;;;;;;1.33;0.28;;;;;;;18.06;100.00;98915.69;7402498;19;20066;-53
2022/10/25 00:12:04;;;;;;;0.10;0.10;;;;;;;18.09;100.00;98920.97;7399303;19;20349;-53
2022/10/25 00:14:32;;;;;;;0.15;0.10;;;;;;;18.32;100.00;98920.41;7394821;19;20018;-56
2022/10/25 00:16:58;;;;;;;0.30;0.22;;;;;;;18.65;100.00;98922.38;7394960;19;20011;-57
2022/10/25 00:19:24;;;;;;;0.20;0.20;;;;;;;18.70;100.00;98916.59;7396693;19;20022;-56
2022/10/25 00:21:50;;;;;;;0.10;0.10;;;;;;;18.78;100.00;98928.66;7391294;19;20095;-56
2022/10/25 00:24:16;;;;;;;0.77;0.63;;;;;;;18.71;100.00;98925.81;7391819;19;20010;-56
2022/10/25 00:26:42;;;;;;;0.20;0.20;;;;;;;18.50;100.00;98931.47;7390711;19;20010;-56
2022/10/25 00:29:09;;;;;;;0.28;0.28;;;;;;;17.97;100.00;98936.63;7391754;19;20014;-56
2022/10/25 00:31:36;;;;;;;0.20;0.15;;;;;;;18.03;100.00;98934.44;7392640;19;20455;-56
2022/10/25 00:34:03;;;;;;;0.30;0.30;;;;;;;18.01;100.00;98937.06;7392766;19;20415;-57
2022/10/25 00:36:29;;;;;;;0.20;0.10;;;;;;;18.18;100.00;98943.03;7392522;19;20077;-56
2022/10/25 00:38:57;;;;;;;0.10;0.10;;;;;;;18.18;100.00;98940.22;7394449;19;20011;-57
2022/10/25 00:41:27;;;;;;;0.28;0.10;;;;;;;18.34;100.00;98940.34;7391825;19;20086;-57
2022/10/25 00:43:56;;;;;;;0.30;0.20;;;;;;;18.33;100.00;98944.47;7397199;19;20040;-57
2022/10/25 00:46:28;;;;;;;0.10;0.10;;;;;;;18.41;100.00;98934.75;7392117;19;20336;-56
2022/10/25 00:48:54;;;;;;;0.30;0.10;;;;;;;18.79;100.00;98946.34;7395698;19;20562;-57
2022/10/25 00:51:27;;;;;;;0.20;0.15;;;;;;;18.45;100.00;98940.09;7389655;19;20014;-55
2022/10/25 00:53:54;;;;;;;0.15;0.15;;;;;;;18.52;100.00;98934.50;7392875;19;20010;-56
2022/10/25 00:56:24;;;;;;;0.10;0.10;;;;;;;18.71;100.00;98939.91;7393710;19;20466;-57
2022/10/25 00:58:56;;;;;;;1.52;0.30;;;;;;;18.56;100.00;98937.72;7394482;19;20019;-57
2022/10/25 01:01:23;;;;;;;0.10;0.10;;;;;;;18.47;100.00;98943.13;7392425;19;20015;-57
2022/10/25 01:03:53;;;;;;;0.10;0.10;;;;;;;18.50;100.00;98953.28;7393294;19;20011;-56
2022/10/25 01:06:28;;;;;;;0.35;0.10;;;;;;;18.61;100.00;98945.28;7392202;19;20026;-56
2022/10/25 01:08:56;;;;;;;0.30;0.17;;;;;;;18.64;100.00;98947.00;7394469;19;20038;-56
2022/10/25 01:11:22;;;;;;;0.10;0.10;;;;;;;18.63;100.00;98950.38;7392427;19;20013;-56
2022/10/25 01:13:49;;;;;;;0.10;0.10;;;;;;;18.64;100.00;98952.66;7396635;19;20542;-57
2022/10/25 01:16:15;;;;;;;1.00;0.52;;;;;;;18.57;100.00;98958.22;7391760;19;20018;-56
2022/10/25 01:18:57;;;;;;;0.30;0.30;;;;;;;18.63;100.00;98961.66;7394223;19;20018;-56
2022/10/25 01:21:44;;;;;;;0.30;0.30;;;;;;;18.11;100.00;98969.06;7391395;19;20411;-56
2022/10/25 01:24:48;;;;;;;0.17;0.17;;;;;;;18.45;100.00;98971.84;7390073;19;20014;-56
2022/10/25 01:27:46;;;;;;;0.10;0.10;;;;;;;18.12;100.00;98970.59;7388667;19;20048;-56
2022/10/25 01:30:18;;;;;;;6.13;0.50;;;;;;;18.05;100.00;98976.16;7389704;19;20039;-56
2022/10/25 01:33:00;;;;;;;0.10;0.10;;;;;;;17.98;100.00;98971.19;7390527;19;20029;-56
2022/10/25 01:35:26;;;;;;;;;;;;;;;18.30;100.00;98974.50;7391683;19;20462;-56
2022/10/25 01:38:07;;;;;;;0.10;0.10;;;;;;;18.28;100.00;98976.38;7390930;19;19914;-56
2022/10/25 01:40:51;;;;;;;1.02;0.28;;;;;;;18.16;100.00;98981.53;7390854;19;20011;-56
2022/10/25 01:43:58;;;;;;;0.25;0.25;;;;;;;18.13;100.00;98989.00;7395166;19;20014;-56
2022/10/25 01:46:45;;;;;;;0.40;0.40;;;;;;;18.02;100.00;98983.63;7389842;19;20110;-56
2022/10/25 01:49:18;;;;;;;0.70;0.50;;;;;;;18.29;100.00;98991.97;7394079;19;20014;-56
2022/10/25 01:51:44;;;;;;;4.22;0.57;;;;;;;18.02;100.00;98994.13;7390818;19;20013;-56
2022/10/25 01:54:23;;;;;;;1.45;0.85;;;;;;;18.00;100.00;98994.69;7390876;19;20079;-56
2022/10/25 01:57:18;;;;;;;0.20;0.20;;;;;;;17.81;100.00;99008.19;7392604;19;20014;-56
2022/10/25 01:59:59;;;;;;;0.20;0.20;;;;;;;17.99;100.00;99001.66;7392898;19;20342;-56
2022/10/25 02:02:47;;;;;;;0.20;0.20;;;;;;;18.05;100.00;99005.09;7390007;19;20036;-56
2022/10/25 02:05:41;;;;;;;0.10;0.10;;;;;;;18.31;100.00;98997.81;7388948;19;20018;-56
2022/10/25 02:08:22;;;;;;;0.25;0.25;;;;;;;17.82;100.00;99004.06;7390864;19;20010;-55
2022/10/25 02:11:10;;;;;;;0.20;0.20;;;;;;;17.98;100.00;99002.19;7390714;19;20014;-56
2022/10/25 02:14:02;;;;;;;0.10;0.10;;;;;;;17.93;100.00;99006.63;7393084;19;20006;-56
2022/10/25 02:16:35;;;;;;;0.10;0.10;;;;;;;17.78;100.00;98998.00;7388008;19;20014;-56
2022/10/25 02:19:05;;;;;;;0.10;0.10;;;;;;;17.86;100.00;98998.09;7392082;19;20015;-55
2022/10/25 02:21:35;;;;;;;0.40;0.20;;;;;;;17.71;100.00;98995.88;7389666;19;20031;-56
2022/10/25 02:24:08;;;;;;;0.57;0.30;;;;;;;17.55;100.00;98991.34;7388942;19;20027;-56
2022/10/25 02:26:35;;;;;;;0.10;0.05;;;;;;;17.50;100.00;98994.28;7389120;19;20011;-56
2022/10/25 02:29:03;;;;;;;0.20;0.20;;;;;;;17.65;100.00;98994.50;7392061;19;20476;-56
2022/10/25 02:31:33;;;;;;;9.15;0.55;;;;;;;17.60;100.00;98998.19;7389869;19;20014;-56
2022/10/25 02:34:00;;;;;;;0.35;0.17;;;;;;;17.71;100.00;99004.34;7388529;19;20010;-56
2022/10/25 02:36:26;;;;;;;0.10;0.10;;;;;;;17.79;100.00;99005.16;7389528;19;20007;-56
2022/10/25 02:38:53;;;;;;;0.90;0.20;;;;;;;17.92;100.00;98999.50;7391805;19;20421;-56
2022/10/25 02:41:20;;;;;;;0.20;0.20;;;;;;;18.01;100.00;99001.84;7389156;19;20018;-56
2022/10/25 02:43:47;;;;;;;0.30;0.30;;;;;;;17.77;100.00;99007.00;7389486;19;20018;-56
2022/10/25 02:46:16;;;;;;;2.83;0.50;;;;;;;17.89;100.00;99006.22;7388129;19;20021;-56
2022/10/25 02:48:43;;;;;;;1.30;0.55;;;;;;;18.41;100.00;99004.50;7391141;19;20011;-56
2022/10/25 02:51:10;;;;;;;0.10;0.10;;;;;;;18.42;100.00;99012.41;7390651;19;20014;-56
2022/10/25 02:53:36;;;;;;;0.20;0.10;;;;;;;18.18;100.00;99007.09;7388908;19;20014;-56
2022/10/25 02:56:09;;;;;;;0.10;0.10;;;;;;;18.26;100.00;99010.72;7390330;19;20087;-56
2022/10/25 02:58:37;;;;;;;0.90;0.65;;;;;;;18.15;100.00;99013.81;7398019;19;20020;-56
2022/10/25 03:01:04;;;;;;;0.10;0.10;;;;;;;17.99;100.00;99018.56;7395884;19;20478;-56
2022/10/25 03:03:30;;;;;;;8.88;0.52;;;;;;;18.09;100.00;99016.00;7395969;19;20014;-56
2022/10/25 03:05:57;;;;;;;0.10;0.10;;;;;;;17.89;100.00;99022.34;7393450;19;20010;-56
2022/10/25 03:08:24;;;;;;;0.10;0.10;;;;;;;17.88;100.00;99018.81;7396910;19;20011;-56
2022/10/25 03:10:50;;;;;;;0.10;0.10;;;;;;;18.00;100.00;99020.06;7396399;19;20077;-56
2022/10/25 03:13:17;;;;;;;0.13;0.10;;;;;;;17.84;100.00;99021.19;7399056;19;20010;-56
2022/10/25 03:15:44;;;;;;;0.10;0.10;;;;;;;17.76;100.00;99022.41;7394789;19;20002;-56
2022/10/25 03:18:10;;;;;;;0.22;0.20;;;;;;;17.79;100.00;99027.69;7396012;19;20011;-56
2022/10/25 03:20:37;;;;;;;0.10;0.10;;;;;;;17.67;100.00;99031.31;7394737;19;20343;-56
2022/10/25 03:23:03;;;;;;;0.20;0.20;;;;;;;17.82;100.00;99018.16;7394853;19;20014;-56
2022/10/25 03:25:29;;;;;;;1.40;0.20;;;;;;;17.80;100.00;99023.56;7393198;19;20363;-56
2022/10/25 03:27:59;;;;;;;0.10;0.00;;;;;;;17.80;100.00;99017.94;7395671;19;20015;-56
2022/10/25 03:30:26;;;;;;;0.20;0.20;;;;;;;17.52;100.00;99019.84;7394910;19;20621;-56
2022/10/25 03:32:52;;;;;;;0.15;0.15;;;;;;;17.62;100.00;99024.50;7394718;19;20474;-56
2022/10/25 03:35:19;;;;;;;0.10;0.10;;;;;;;17.44;100.00;99026.09;7395613;19;20007;-56
2022/10/25 03:37:50;;;;;;;0.10;0.10;;;;;;;17.45;100.00;99027.59;7394760;19;20006;-56
2022/10/25 03:40:16;;;;;;;6.13;0.43;;;;;;;17.50;100.00;99026.00;7394269;19;20015;-56
2022/10/25 03:42:43;;;;;;;0.20;0.13;;;;;;;17.47;100.00;99024.25;7396624;19;20011;-56
2022/10/25 03:45:10;;;;;;;0.10;0.08;;;;;;;17.27;100.00;99036.19;7392727;19;20007;-56
2022/10/25 03:47:36;;;;;;;0.25;0.22;;;;;;;16.95;100.00;99035.50;7394644;19;20085;-56
2022/10/25 03:50:03;;;;;;;0.13;0.13;;;;;;;17.16;100.00;99034.34;7395327;19;20478;-56
2022/10/25 03:52:29;;;;;;;0.10;0.10;;;;;;;17.16;100.00;99042.03;7392973;19;20105;-56
2022/10/25 03:54:55;;;;;;;0.17;0.17;;;;;;;17.31;100.00;99047.88;7394724;19;20021;-56
2022/10/25 03:57:21;;;;;;;0.10;0.10;;;;;;;17.38;100.00;99033.16;7397618;19;20038;-56
2022/10/25 03:59:48;;;;;;;0.75;0.25;;;;;;;17.44;100.00;99042.22;7398265;19;20353;-56
2022/10/25 04:02:14;;;;;;;0.20;0.15;;;;;;;17.45;100.00;99027.59;7394428;19;20094;-56
2022/10/25 04:04:40;;;;;;;0.20;0.20;;;;;;;17.43;100.00;99018.22;7393158;19;20458;-56
2022/10/25 04:07:06;;;;;;;4.47;0.43;;;;;;;17.70;100.00;99028.16;7392621;19;20021;-56
2022/10/25 04:09:32;;;;;;;0.20;0.10;;;;;;;17.62;100.00;99024.50;7397463;19;20021;-56
2022/10/25 04:11:59;;;;;;;0.20;0.20;;;;;;;17.58;100.00;99024.06;7395309;19;20070;-56
2022/10/25 04:14:25;;;;;;;0.17;0.13;;;;;;;17.63;100.00;99028.81;7393576;19;20038;-56
2022/10/25 04:16:51;;;;;;;0.22;0.15;;;;;;;17.69;100.00;99032.28;7394478;19;20015;-56
2022/10/25 04:19:17;;;;;;;0.10;0.10;;;;;;;17.59;100.00;99033.25;7397266;19;20014;-57
2022/10/25 04:21:43;;;;;;;0.30;0.30;;;;;;;17.66;100.00;99035.41;7393473;19;20021;-57
2022/10/25 04:24:09;;;;;;;0.17;0.17;;;;;;;17.66;100.00;99041.81;7392745;19;20726;-56
2022/10/25 04:26:36;;;;;;;0.10;0.10;;;;;;;17.38;100.00;99045.16;7392579;19;20032;-56
2022/10/25 04:29:04;;;;;;;0.20;0.20;;;;;;;17.65;100.00;99050.81;7395516;19;20022;-57
2022/10/25 04:31:31;;;;;;;0.63;0.30;;;;;;;17.69;100.00;99034.34;7393927;19;20014;-56
2022/10/25 04:33:57;;;;;;;0.10;0.10;;;;;;;17.73;100.00;99046.78;7393193;19;20090;-56
2022/10/25 04:36:26;;;;;;;0.20;0.20;;;;;;;17.69;100.00;99045.59;7393069;19;20082;-56
2022/10/25 04:38:52;;;;;;;0.10;0.10;;;;;;;17.67;100.00;99054.56;7394693;19;20014;-56
2022/10/25 04:41:19;;;;;;;0.20;0.20;;;;;;;17.66;100.00;99058.69;7392672;19;20011;-57
2022/10/25 04:43:46;;;;;;;0.45;0.30;;;;;;;17.63;100.00;99068.22;7394973;19;20038;-56
2022/10/25 04:46:14;;;;;;;0.10;0.10;;;;;;;17.68;100.00;99067.38;7392377;19;20044;-56
2022/10/25 04:48:40;;;;;;;0.22;0.22;;;;;;;17.60;100.00;99077.00;7394653;19;20088;-56
2022/10/25 04:51:08;;;;;;;0.10;0.10;;;;;;;17.43;100.00;99085.78;7392889;19;20066;-56
2022/10/25 04:53:34;;;;;;;0.10;0.10;;;;;;;17.46;100.00;99084.66;7392551;19;20017;-56
2022/10/25 04:56:03;;;;;;;0.10;0.10;;;;;;;17.28;100.00;99079.91;7392992;19;20947;-56
2022/10/25 04:58:31;;;;;;;0.30;0.30;;;;;;;17.37;100.00;99077.41;7391188;19;20066;-56
2022/10/25 05:01:06;;;;;;;0.47;0.40;;;;;;;17.18;100.00;99087.25;7392475;19;20020;-56
2022/10/25 05:03:33;;;;;;;0.90;0.55;;;;;;;17.07;100.00;99093.06;7390827;19;20459;-56
2022/10/25 05:06:17;;;;;;;0.73;0.63;;;;;;;16.80;100.00;99088.72;7390985;19;20047;-56
2022/10/25 05:08:46;;;;;;;0.10;0.10;;;;;;;16.57;100.00;99096.72;7393600;19;20088;-56
2022/10/25 05:11:14;;;;;;;0.60;0.60;;;;;;;16.28;100.00;99098.44;7392461;19;20018;-56
2022/10/25 05:13:41;;;;;;;0.20;0.20;;;;;;;16.22;100.00;99099.81;7395940;19;20021;-56
2022/10/25 05:16:11;;;;;;;0.35;0.35;;;;;;;16.42;100.00;99094.38;7390744;19;20419;-57
2022/10/25 05:18:38;;;;;;;0.17;0.17;;;;;;;16.34;100.00;99096.31;7392639;19;20355;-57
2022/10/25 05:21:05;;;;;;;0.30;0.30;;;;;;;16.18;100.00;99102.16;7389473;19;20410;-57
2022/10/25 05:23:33;;;;;;;0.68;0.20;;;;;;;16.03;100.00;99108.22;7392236;19;20011;-57
2022/10/25 05:26:19;;;;;;;0.20;0.20;;;;;;;15.78;100.00;99110.34;7390535;19;20042;-57
2022/10/25 05:28:48;;;;;;;0.30;0.30;;;;;;;15.74;100.00;99111.94;7393230;19;20010;-57
2022/10/25 05:31:19;;;;;;;0.52;0.22;;;;;;;15.69;100.00;99104.34;7391974;19;20593;-56
2022/10/25 05:33:48;;;;;;;0.10;0.10;;;;;;;15.96;100.00;99116.50;7391853;19;20066;-56
2022/10/25 05:36:15;;;;;;;1.55;0.35;;;;;;;15.98;100.00;99111.88;7390544;19;20018;-56
2022/10/25 05:38:41;;;;;;;0.45;0.30;;;;;;;15.94;100.00;99117.78;7390724;19;20411;-56
2022/10/25 05:41:10;;;;;;;0.40;0.40;;;;;;;15.87;100.00;99117.66;7390720;19;20018;-56
2022/10/25 05:43:37;;;;;;;0.55;0.45;;;;;;;15.86;100.00;99118.91;7394660;19;20006;-56
2022/10/25 05:46:09;;;;;;;0.10;0.10;;;;;;;16.08;100.00;99141.09;7388404;19;20026;-56
2022/10/25 05:48:36;;;;;;;0.52;0.28;;;;;;;15.89;100.00;99134.72;7393074;19;20018;-56
2022/10/25 05:51:26;;;;;;;0.47;0.25;;;;;;;15.74;100.00;99134.41;7390299;19;20035;-56
2022/10/25 05:53:54;;;;;;;0.10;0.10;;;;;;;16.13;100.00;99134.66;7390476;19;20070;-57
2022/10/25 05:56:23;;;;;;;0.10;0.10;;;;;;;16.20;100.00;99131.22;7390902;19;20018;-57
2022/10/25 05:58:49;;;;;;;0.20;0.20;;;;;;;16.23;100.00;99141.41;7392149;19;20074;-56
2022/10/25 06:01:18;;;;;;;0.43;0.20;;;;;;;16.20;100.00;99148.09;7390814;19;20017;-56
2022/10/25 06:03:49;;;;;;;0.20;0.20;;;;;;;16.08;100.00;99145.97;7390224;19;20010;-57
2022/10/25 06:06:16;;;;;;;0.43;0.28;;;;;;;16.29;100.00;99150.53;7389227;19;20007;-56
2022/10/25 06:08:43;;;;;;;0.20;0.20;;;;;;;16.29;100.00;99146.94;7391276;19;20491;-57
2022/10/25 06:11:11;;;;;;;0.20;0.20;;;;;;;16.22;100.00;99145.50;7390142;19;20006;-56
2022/10/25 06:13:38;;;;;;;0.90;0.45;;;;;;;16.14;100.00;99141.03;7397797;19;20014;-56
2022/10/25 06:16:08;;;;;;;2.00;0.50;;;;;;;16.12;100.00;99152.03;7394816;19;20327;-56
2022/10/25 06:18:37;;;;;;;0.30;0.30;;;;;;;16.00;100.00;99145.81;7396691;19;20018;-56
2022/10/25 06:21:14;;;;;;;0.30;0.30;;;;;;;16.19;100.00;99155.00;7394850;19;20018;-56
2022/10/25 06:23:41;;;;;;;1.23;1.13;;;;;;;16.03;100.00;99152.41;7394620;19;20026;-57
2022/10/25 06:26:14;;;;;;;0.43;0.43;;;;;;;15.98;100.00;99148.41;7390533;19;20463;-56
2022/10/25 06:28:46;;;;;;;0.63;0.60;;;;;;;16.01;100.00;99146.56;7397720;19;20018;-52
2022/10/25 06:31:17;;;;;;;4.78;0.90;;;;;;;16.17;100.00;99154.03;7394530;19;20020;-56
2022/10/25 06:33:44;;;;;;;20.33;3.17;;;;;;;15.96;100.00;99156.56;7400333;19;20074;-57
2022/10/25 06:36:15;;;;;;;14.50;3.10;;;;;;;16.17;100.00;99154.03;7397257;19;20014;-54
2022/10/25 06:38:45;;;;;;;12.07;3.13;;;;;;;16.04;100.00;99165.94;7397241;19;20021;-53
2022/10/25 06:41:17;;;;;;;11.02;1.50;;;;;;;15.70;100.00;99157.13;7394429;19;20485;-53
2022/10/25 06:43:43;;;;;;;;;;;;;;;15.87;100.00;99162.56;7398520;19;20331;-53
2022/10/25 06:46:23;;;;;;;0.47;0.47;;;;;;;15.88;100.00;99164.06;7391941;19;20552;-53
2022/10/25 06:48:52;;;;;;;0.40;0.40;;;;;;;15.72;100.00;99167.84;7397567;19;20025;-53
2022/10/25 06:51:18;;;;;;;0.28;0.28;;;;;;;15.72;100.00;99168.59;7400246;19;20011;-53
2022/10/25 06:53:45;;;;;;;2.20;1.05;;;;;;;15.89;100.00;99168.41;7396026;19;20116;-53
2022/10/25 06:56:13;;;;;;;1.27;0.55;;;;;;;16.18;100.00;99167.53;7396366;19;20011;-53
2022/10/25 06:58:39;;;;;;;0.93;0.88;;;;;;;16.13;100.00;99176.81;7396924;19;20014;-53
2022/10/25 07:01:16;;;;;;;9.05;1.05;;;;;;;16.13;100.00;99176.81;7394309;19;20022;-53
2022/10/25 07:03:42;;;;;;;0.77;0.77;;;;;;;16.16;100.00;99175.72;7396573;19;20010;-53
2022/10/25 07:06:14;;;;;;;0.77;0.30;;;;;;;15.86;100.00;99184.28;7392655;19;20025;-53
2022/10/25 07:08:41;;;;;;;;;;;;;;;15.99;100.00;99183.59;7396673;19;20049;-53
2022/10/25 07:11:13;;;;;;;2.42;0.95;;;;;;;15.93;100.00;99185.72;7395594;19;19929;-53
2022/10/25 07:13:39;;;;;;;0.63;0.50;;;;;;;15.87;100.00;99190.66;7399926;19;20011;-54
2022/10/25 07:16:08;;;;;;;0.45;0.45;;;;;;;16.01;100.00;99186.63;7394894;19;20017;-53
2022/10/25 07:18:35;;;;;;;0.30;0.30;;;;;;;15.86;100.00;99197.53;7396157;19;20023;-53
2022/10/25 07:21:09;;;;;;;0.45;0.45;;;;;;;15.64;100.00;99203.38;7395624;19;20007;-53
2022/10/25 07:23:40;;;;;;;0.60;0.60;;;;;;;15.79;100.00;99196.09;7395492;19;20107;-53
2022/10/25 07:26:21;;;;;;;0.30;0.20;;;;;;;16.03;100.00;99202.94;7392955;19;20398;-53
2022/10/25 07:28:49;;;;;;;6.43;0.60;;;;;;;15.90;100.00;99203.63;7397538;19;20017;-53
2022/10/25 07:31:20;;;;;;;2.28;1.02;;;;;;;16.15;100.00;99207.94;7394675;19;20018;-53
2022/10/25 07:33:46;;;;;;;2.20;1.40;;;;;;;16.24;100.00;99207.53;7394996;19;20010;-53
2022/10/25 07:36:12;;;;;;;0.35;0.35;;;;;;;15.81;100.00;99206.78;7395730;19;20006;-53
2022/10/25 07:38:39;;;;;;;0.40;0.30;;;;;;;16.01;100.00;99203.50;7397066;19;20037;-53
2022/10/25 07:41:06;;;;;;;0.40;0.40;;;;;;;16.28;100.00;99208.03;7394772;19;20031;-53
2022/10/25 07:43:32;;;;;;;0.52;0.52;;;;;;;16.20;100.00;99209.91;7397140;19;20010;-54
2022/10/25 07:45:58;;;;;;;0.25;0.25;;;;;;;16.37;100.00;99212.50;7392283;19;20002;-53
2022/10/25 07:48:25;;;;;;;0.63;0.63;;;;;;;16.49;100.00;99211.81;7397309;19;20504;-53
2022/10/25 07:50:51;;;;;;;1.10;1.10;;;;;;;16.49;100.00;99220.25;7396643;19;20022;-57
2022/10/25 07:53:18;;;;;;;0.35;0.35;;;;;;;16.59;100.00;99224.22;7396409;19;20357;-57
2022/10/25 07:55:51;;;;;;;0.65;0.65;;;;;;;16.34;100.00;99225.56;7393940;19;20019;-53
2022/10/25 07:58:18;;;;;;;0.50;0.50;;;;;;;16.76;100.00;99220.44;7395052;19;20022;-53
2022/10/25 08:00:44;;;;;;;1.08;0.68;;;;;;;16.05;100.00;99220.06;7391849;19;20074;-53
2022/10/25 08:03:12;;;;;;;0.85;0.52;;;;;;;16.36;100.00;99220.16;7394244;19;20462;-53
2022/10/25 08:05:38;;;;;;;0.68;0.32;;;;;;;16.76;100.00;99212.00;7391895;19;20115;-53
2022/10/25 08:08:04;;;;;;;5.05;0.68;;;;;;;16.55;100.00;99223.78;7396007;19;20394;-53
2022/10/25 08:10:31;;;;;;;0.73;0.50;;;;;;;16.37;100.00;99230.09;7394170;19;20013;-53
2022/10/25 08:12:57;;;;;;;4.18;0.70;;;;;;;16.43;100.00;99228.00;7397158;19;20098;-53
2022/10/25 08:15:23;;;;;;;1.35;0.93;;;;;;;16.54;100.00;99227.91;7390897;19;20502;-53
2022/10/25 08:17:57;;;;;;;2.90;1.00;;;;;;;16.21;100.00;99227.53;7392342;19;20027;-53
2022/10/25 08:20:23;;;;;;;0.40;0.40;;;;;;;16.49;100.00;99225.13;7393540;19;20007;-53
2022/10/25 08:22:50;;;;;;;0.70;0.70;;;;;;;16.59;100.00;99218.59;7394572;19;20018;-53
2022/10/25 08:25:16;;;;;;;1.45;0.40;;;;;;;16.84;100.00;99221.31;7391852;19;20467;-53
2022/10/25 08:27:42;;;;;;;2.75;0.47;;;;;;;17.08;100.00;99219.16;7396827;19;20020;-53
2022/10/25 08:30:09;;;;;;;0.10;0.10;;;;;;;17.24;100.00;99223.75;7393333;19;20038;-53
2022/10/25 08:32:36;;;;;;;1.13;0.65;;;;;;;17.41;100.00;99226.31;7393331;19;20017;-54
2022/10/25 08:35:03;;;;;;;0.38;0.38;;;;;;;17.40;100.00;99227.59;7393451;19;20018;-53
2022/10/25 08:37:29;;;;;;;2.55;0.40;;;;;;;17.49;100.00;99220.78;7393360;19;20010;-54
2022/10/25 08:39:55;;;;;;;0.32;0.10;;;;;;;17.70;100.00;99224.53;7396941;19;20006;-54
2022/10/25 08:42:37;;;;;;;1.30;0.95;;;;;;;17.78;100.00;99225.41;7394433;19;20043;-54
2022/10/25 08:45:35;;;;;;;0.40;0.30;;;;;;;17.92;100.00;99227.69;7390848;19;20021;-54
2022/10/25 08:48:10;;;;;;;4.25;0.47;;;;;;;18.12;100.00;99235.50;7392028;19;20012;-54
2022/10/25 08:50:41;;;;;;;1.02;0.43;;;;;;;18.26;100.00;99227.03;7393069;19;20017;-54
2022/10/25 08:53:17;;;;;;;2.45;1.25;;;;;;;18.28;100.00;99224.44;7392990;19;20108;-54
2022/10/25 08:55:45;;;;;;;0.20;0.20;;;;;;;18.61;100.00;99218.09;7391143;19;20018;-54
2022/10/25 08:58:25;;;;;;;0.10;0.10;;;;;;;18.76;100.00;99224.66;7392838;19;20038;-54
2022/10/25 09:00:51;;;;;;;0.68;0.68;;;;;;;18.81;100.00;99228.69;7392146;19;20014;-54
2022/10/25 09:03:25;;;;;;;1.35;0.52;;;;;;;18.82;100.00;99221.72;7392642;19;20010;-54
2022/10/25 09:06:09;;;;;;;1.88;0.60;;;;;;;18.80;100.00;99227.91;7390761;19;20011;-54
2022/10/25 09:08:42;;;;;;;0.60;0.35;;;;;;;19.05;100.00;99228.38;7393063;19;20110;-54
2022/10/25 09:11:29;;;;;;;3.47;0.57;;;;;;;19.07;100.00;99234.22;7391876;19;20462;-54
2022/10/25 09:14:10;;;;;;;0.10;0.10;;;;;;;19.24;100.00;99231.00;7395819;19;20010;-54
2022/10/25 09:16:51;;;;;;;0.55;0.47;;;;;;;19.67;100.00;99231.97;7392129;19;20014;-54
2022/10/25 09:19:34;;;;;;;0.35;0.35;;;;;;;20.12;100.00;99236.44;7396435;19;20350;-54
2022/10/25 09:22:04;;;;;;;0.55;0.17;;;;;;;20.23;100.00;99236.13;7391101;19;20006;-54
2022/10/25 09:24:59;;;;;;;0.25;0.10;;;;;;;20.10;100.00;99239.78;7391223;19;20502;-55
2022/10/25 09:27:35;;;;;;;4.68;0.30;;;;;;;20.64;100.00;99238.75;7394851;19;20015;-55
2022/10/25 09:30:04;;;;;;;1.25;0.55;;;;;;;20.60;100.00;99240.44;7396504;19;20010;-54
2022/10/25 09:32:42;;;;;;;0.38;0.30;;;;;;;20.75;100.00;99244.09;7392002;19;20011;-55
2022/10/25 09:35:22;;;;;;;0.40;0.00;;;;;;;20.68;100.00;99241.97;7390545;19;20038;-54
2022/10/25 09:37:52;;;;;;;0.10;0.10;;;;;;;20.58;100.00;99232.53;7391321;19;20696;-55
2022/10/25 09:40:24;;;;;;;1.63;0.50;;;;;;;20.70;100.00;99228.06;7392008;19;20575;-54
2022/10/25 09:42:55;;;;;;;9.15;0.60;;;;;;;20.66;100.00;99232.56;7393442;19;20014;-54
2022/10/25 09:45:41;;;;;;;3.03;0.73;;;;;;;20.69;100.00;99226.53;7389411;19;20380;-54
2022/10/25 09:48:21;;;;;;;0.32;0.30;;;;;;;20.54;100.00;99228.53;7392175;19;20034;-54
2022/10/25 09:50:50;;;;;;;0.10;0.10;;;;;;;20.23;100.00;99236.88;7390722;19;20026;-54
2022/10/25 09:53:17;;;;;;;0.77;0.20;;;;;;;20.33;100.00;99237.13;7390259;19;20023;-54
2022/10/25 09:55:49;;;;;;;0.10;0.10;;;;;;;20.20;100.00;99229.53;7390761;19;20355;-55
2022/10/25 09:58:32;;;;;;;0.45;0.45;;;;;;;20.37;100.00;99231.88;7389932;19;20011;-54
2022/10/25 10:01:03;;;;;;;0.43;0.38;;;;;;;20.45;100.00;99235.47;7390582;19;20007;-55
2022/10/25 10:03:34;;;;;;;4.38;0.40;;;;;;;20.63;100.00;99237.25;7389315;19;20452;-54
2022/10/25 10:06:19;;;;;;;0.95;0.90;;;;;;;21.00;100.00;99238.69;7387789;19;20014;-54
2022/10/25 10:09:06;;;;;;;0.55;0.55;;;;;;;21.10;100.00;99248.19;7392411;19;20018;-54
2022/10/25 10:11:35;;;;;;;0.50;0.30;;;;;;;21.16;100.00;99240.25;7388126;19;20074;-54
2022/10/25 10:14:26;;;;;;;0.65;0.55;;;;;;;20.93;100.00;99237.34;7390106;19;20025;-54
2022/10/25 10:16:55;;;;;;;1.35;0.40;;;;;;;20.91;100.00;99242.06;7389464;19;20014;-54
2022/10/25 10:19:24;;;;;;;0.80;0.47;;;;;;;20.92;100.00;99237.94;7391587;19;20101;-54
2022/10/25 10:22:11;;;;;;;0.22;0.03;;;;;;;21.25;100.00;99241.78;7390795;19;20016;-54
2022/10/25 10:24:41;;;;;;;1.00;0.43;;;;;;;21.40;100.00;99241.78;7390764;19;20006;-55
2022/10/25 10:27:10;;;;;;;0.15;0.13;;;;;;;21.07;100.00;99241.56;7391347;19;20362;-55
2022/10/25 10:29:49;;;;;;;2.13;0.10;;;;;;;20.35;100.00;99248.63;7391105;19;20014;-54
2022/10/25 10:32:32;;;;;;;0.10;0.10;;;;;;;21.28;100.00;99246.31;7388061;19;20024;-58
2022/10/25 10:34:58;;;;;;;4.28;0.20;;;;;;;20.97;100.00;99248.31;7389238;19;20044;-58
2022/10/25 10:37:50;;;;;;;1.90;0.43;;;;;;;21.01;100.00;99257.94;7392762;19;20007;-58
2022/10/25 10:40:45;;;;;;;0.30;0.25;;;;;;;21.10;100.00;99254.59;7387967;19;20042;-58
2022/10/25 10:43:31;;;;;;;0.10;0.00;;;;;;;21.18;100.00;99251.78;7391884;19;20022;-58
2022/10/25 10:46:27;;;;;;;7.97;0.65;;;;;;;21.13;100.00;99259.16;7387678;19;20015;-58
2022/10/25 10:48:57;;;;;;;7.78;0.52;;;;;;;21.13;100.00;99259.16;7389064;19;20018;-58
2022/10/25 10:52:03;;;;;;;;;;;;;;;;;;;;;
2022/10/25 10:54:51;;;;;;;0.50;0.10;;;;;;;21.66;100.00;99258.44;7389151;19;20018;-58
2022/10/25 10:58:11;;;;;;;;;;;;;;;;;;;;;
2022/10/25 11:00:41;;;;;;;0.30;0.25;;;;;;;21.68;100.00;99270.72;7385901;19;20014;-58
2022/10/25 11:03:34;;;;;;;0.45;0.28;;;;;;;21.85;100.00;99270.19;7386053;19;20376;-58
2022/10/25 11:06:14;;;;;;;0.00;0.00;;;;;;;21.56;100.00;99271.66;7387821;19;20766;-58
2022/10/25 11:08:43;;;;;;;0.10;0.10;;;;;;;21.73;100.00;99269.03;7387570;19;20466;-58
2022/10/25 11:11:17;;;;;;;0.60;0.38;;;;;;;21.87;100.00;99267.56;7386743;19;20474;-58
2022/10/25 11:13:57;;;;;;;0.00;0.00;;;;;;;21.81;100.00;99276.19;7391799;19;20015;-58
2022/10/25 11:16:34;;;;;;;0.10;0.10;;;;;;;21.74;100.00;99282.63;7390315;19;20030;-57
2022/10/25 11:19:19;;;;;;;0.20;0.20;;;;;;;21.89;100.00;99273.41;7393119;19;20014;-58
2022/10/25 11:22:11;;;;;;;0.90;0.60;;;;;;;21.99;100.00;99268.66;7393435;19;20503;-58
2022/10/25 11:24:50;;;;;;;0.20;0.20;;;;;;;22.16;100.00;99277.34;7394250;19;20015;-58
2022/10/25 11:28:00;;;;;;;;;;;;;;;;;;;;;
2022/10/25 11:31:00;;;;;;;0.30;0.00;;;;;;;22.28;100.00;99266.34;7393201;19;20017;-58
2022/10/25 11:33:41;;;;;;;0.08;0.08;;;;;;;22.23;100.00;99270.91;7395146;19;20098;-58
2022/10/25 11:36:23;;;;;;;0.05;0.00;;;;;;;22.25;100.00;99267.47;7393734;19;20343;-57
2022/10/25 11:39:06;;;;;;;0.17;0.10;;;;;;;22.14;100.00;99271.47;7394963;19;20086;-57
2022/10/25 11:42:00;;;;;;;0.35;0.30;;;;;;;22.19;100.00;99269.78;7393267;19;20066;-57
2022/10/25 11:44:54;;;;;;;0.20;0.00;;;;;;;22.17;100.00;99263.91;7391430;19;20021;-56
2022/10/25 11:47:32;;;;;;;0.10;0.10;;;;;;;22.13;100.00;99255.81;7398180;19;20015;-57
2022/10/25 11:50:36;;;;;;;7.55;0.95;;;;;;;22.18;100.00;99260.50;7396326;19;20105;-57
2022/10/25 11:53:29;;;;;;;0.22;0.22;;;;;;;22.15;100.00;99258.06;7393875;19;20010;-57
2022/10/25 11:56:17;;;;;;;0.10;0.03;;;;;;;22.19;100.00;99259.19;7394749;19;20014;-56